createdAt,value
2016-12-31T00:00:11.107Z,0
2016-12-31T00:01:21.832Z,0
2016-12-31T00:02:32.549Z,0
2016-12-31T00:03:43.309Z,0
2016-12-31T00:04:54.017Z,0
2016-12-31T00:06:04.737Z,0
2016-12-31T00:07:15.500Z,0
2016-12-31T00:08:26.206Z,0
2016-12-31T00:09:36.947Z,0
2016-12-31T00:10:47.642Z,0
2016-12-31T00:11:58.338Z,0
2016-12-31T00:13:09.056Z,0
2016-12-31T00:14:19.765Z,0
2016-12-31T00:15:30.519Z,0
2016-12-31T00:16:41.264Z,0
2016-12-31T00:17:51.973Z,0
2016-12-31T00:19:02.697Z,0
2016-12-31T00:20:13.428Z,0
2016-12-31T00:21:24.136Z,0
2016-12-31T00:22:34.882Z,0
2016-12-31T00:23:45.669Z,0
2016-12-31T00:24:56.391Z,0
2016-12-31T00:26:07.108Z,0
2016-12-31T00:27:17.815Z,0
2016-12-31T00:28:28.553Z,0
2016-12-31T00:29:39.257Z,0
2016-12-31T00:30:49.999Z,0
2016-12-31T00:32:00.724Z,0
2016-12-31T00:33:11.492Z,0
2016-12-31T00:34:22.218Z,0
2016-12-31T00:35:32.936Z,0
2016-12-31T00:36:43.658Z,0
2016-12-31T00:37:54.380Z,0
2016-12-31T00:39:05.105Z,0
2016-12-31T00:40:15.850Z,0
2016-12-31T00:41:26.589Z,0
2016-12-31T00:42:37.288Z,0
2016-12-31T00:43:48.031Z,0
2016-12-31T00:44:58.756Z,0
2016-12-31T00:46:09.500Z,0
2016-12-31T00:47:20.223Z,0
2016-12-31T00:48:30.969Z,0
2016-12-31T00:49:41.720Z,0
2016-12-31T00:50:52.432Z,0
2016-12-31T00:52:03.132Z,0
2016-12-31T00:53:13.878Z,0
2016-12-31T00:54:24.621Z,0
2016-12-31T00:55:35.341Z,0
2016-12-31T00:56:46.062Z,0
2016-12-31T00:57:56.779Z,0
2016-12-31T00:59:07.488Z,0
2016-12-31T01:00:18.227Z,0
2016-12-31T01:01:28.921Z,0
2016-12-31T01:02:39.645Z,0
2016-12-31T01:03:50.367Z,0
2016-12-31T01:05:01.087Z,0
2016-12-31T01:06:11.836Z,0
2016-12-31T01:07:22.561Z,0
2016-12-31T01:08:33.297Z,0
2016-12-31T01:09:44.025Z,0
2016-12-31T01:10:54.760Z,0
2016-12-31T01:12:05.481Z,0
2016-12-31T01:13:16.199Z,0
2016-12-31T01:14:26.907Z,0
2016-12-31T01:15:37.649Z,0
2016-12-31T01:16:48.348Z,0
2016-12-31T01:17:59.070Z,0
2016-12-31T01:19:09.790Z,0
2016-12-31T01:20:20.517Z,0
2016-12-31T01:21:31.257Z,0
2016-12-31T01:22:41.978Z,0
2016-12-31T01:23:52.700Z,0
2016-12-31T01:25:03.445Z,0
2016-12-31T01:26:14.142Z,0
2016-12-31T01:27:24.863Z,0
2016-12-31T01:28:35.589Z,0
2016-12-31T01:29:46.326Z,0
2016-12-31T01:30:57.025Z,0
2016-12-31T01:32:07.790Z,0
2016-12-31T01:33:18.493Z,0
2016-12-31T01:34:29.210Z,0
2016-12-31T01:35:39.930Z,0
2016-12-31T01:36:50.669Z,0
2016-12-31T01:38:01.403Z,0
2016-12-31T01:39:12.149Z,0
2016-12-31T01:40:22.894Z,0
2016-12-31T01:41:33.636Z,0
2016-12-31T01:42:44.352Z,0
2016-12-31T01:43:55.083Z,0
2016-12-31T01:45:05.778Z,0
2016-12-31T01:46:16.502Z,0
2016-12-31T01:47:27.245Z,0
2016-12-31T01:48:37.993Z,0
2016-12-31T01:49:48.736Z,0
2016-12-31T01:50:59.454Z,0
2016-12-31T01:52:10.177Z,0
2016-12-31T01:53:20.899Z,0
2016-12-31T01:54:31.643Z,0
2016-12-31T01:55:42.342Z,0
2016-12-31T01:56:53.063Z,0
2016-12-31T01:58:03.797Z,0
2016-12-31T01:59:14.505Z,0
2016-12-31T02:00:25.247Z,0
2016-12-31T02:01:35.968Z,0
2016-12-31T02:02:46.664Z,0
2016-12-31T02:03:57.388Z,0
2016-12-31T02:05:08.109Z,0
2016-12-31T02:06:18.873Z,0
2016-12-31T02:07:29.581Z,0
2016-12-31T02:08:40.319Z,0
2016-12-31T02:09:51.019Z,0
2016-12-31T02:11:01.742Z,0
2016-12-31T02:12:12.485Z,0
2016-12-31T02:13:23.259Z,0
2016-12-31T02:14:33.992Z,0
2016-12-31T02:15:44.713Z,0
2016-12-31T02:16:55.469Z,0
2016-12-31T02:18:06.212Z,0
2016-12-31T02:19:16.933Z,0
2016-12-31T02:20:27.632Z,0
2016-12-31T02:21:38.350Z,0
2016-12-31T02:22:49.099Z,0
2016-12-31T02:23:59.820Z,0
2016-12-31T02:25:10.541Z,0
2016-12-31T02:26:21.259Z,0
2016-12-31T02:27:31.980Z,0
2016-12-31T02:28:42.700Z,0
2016-12-31T02:29:53.422Z,0
2016-12-31T02:31:04.127Z,0
2016-12-31T02:32:14.839Z,0
2016-12-31T02:33:25.560Z,0
2016-12-31T02:34:36.285Z,0
2016-12-31T02:35:47.003Z,0
2016-12-31T02:36:57.716Z,0
2016-12-31T02:38:08.447Z,0
2016-12-31T02:39:19.143Z,0
2016-12-31T02:40:29.839Z,0
2016-12-31T02:41:40.536Z,0
2016-12-31T02:42:51.257Z,0
2016-12-31T02:44:01.980Z,0
2016-12-31T02:45:12.713Z,0
2016-12-31T02:46:23.444Z,0
2016-12-31T02:47:34.193Z,0
2016-12-31T02:48:44.914Z,0
2016-12-31T02:49:56.008Z,0
2016-12-31T02:51:06.750Z,0
2016-12-31T02:52:17.475Z,0
2016-12-31T02:53:28.216Z,0
2016-12-31T02:54:38.918Z,0
2016-12-31T02:55:49.658Z,0
2016-12-31T02:57:00.358Z,0
2016-12-31T02:58:11.100Z,0
2016-12-31T02:59:21.824Z,0
2016-12-31T03:00:32.545Z,0
2016-12-31T03:01:43.291Z,0
2016-12-31T03:02:54.009Z,0
2016-12-31T03:04:04.707Z,0
2016-12-31T03:05:15.456Z,0
2016-12-31T03:06:26.198Z,0
2016-12-31T03:07:37.322Z,0
2016-12-31T03:08:48.065Z,0
2016-12-31T03:09:58.764Z,0
2016-12-31T03:11:09.510Z,0
2016-12-31T03:12:20.232Z,0
2016-12-31T03:13:30.976Z,0
2016-12-31T03:14:41.669Z,0
2016-12-31T03:15:52.368Z,0
2016-12-31T03:17:03.090Z,0
2016-12-31T03:18:13.810Z,0
2016-12-31T03:19:24.528Z,0
2016-12-31T03:20:35.267Z,0
2016-12-31T03:21:45.981Z,0
2016-12-31T03:22:56.691Z,0
2016-12-31T03:24:07.391Z,0
2016-12-31T03:25:18.108Z,0
2016-12-31T03:26:28.807Z,0
2016-12-31T03:27:39.504Z,0
2016-12-31T03:28:50.238Z,0
2016-12-31T03:30:00.970Z,0
2016-12-31T03:31:11.680Z,0
2016-12-31T03:32:22.393Z,0
2016-12-31T03:33:33.135Z,0
2016-12-31T03:34:43.855Z,0
2016-12-31T03:35:54.575Z,0
2016-12-31T03:37:05.303Z,0
2016-12-31T03:38:16.018Z,0
2016-12-31T03:39:26.736Z,0
2016-12-31T03:40:37.449Z,0
2016-12-31T03:41:48.205Z,0
2016-12-31T03:42:58.902Z,0
2016-12-31T03:44:09.644Z,0
2016-12-31T03:45:20.341Z,0
2016-12-31T03:46:31.057Z,0
2016-12-31T03:47:41.836Z,0
2016-12-31T03:48:52.558Z,0
2016-12-31T03:50:03.275Z,0
2016-12-31T03:51:13.992Z,0
2016-12-31T03:52:24.727Z,0
2016-12-31T03:53:35.442Z,0
2016-12-31T03:54:46.161Z,0
2016-12-31T03:55:56.907Z,0
2016-12-31T03:57:08.006Z,0
2016-12-31T03:58:18.731Z,0
2016-12-31T03:59:29.449Z,0
2016-12-31T04:00:40.143Z,0
2016-12-31T04:01:50.863Z,0
2016-12-31T04:03:01.585Z,0
2016-12-31T04:04:12.330Z,0
2016-12-31T04:05:23.027Z,0
2016-12-31T04:06:33.738Z,0
2016-12-31T04:07:44.425Z,0
2016-12-31T04:08:55.162Z,0
2016-12-31T04:10:05.863Z,0
2016-12-31T04:11:16.557Z,0
2016-12-31T04:12:27.278Z,0
2016-12-31T04:13:38.025Z,0
2016-12-31T04:14:48.767Z,0
2016-12-31T04:15:59.490Z,0
2016-12-31T04:17:10.588Z,0
2016-12-31T04:18:21.281Z,0
2016-12-31T04:19:32.001Z,0
2016-12-31T04:20:42.718Z,0
2016-12-31T04:21:53.447Z,0
2016-12-31T04:23:04.168Z,0
2016-12-31T04:24:14.863Z,0
2016-12-31T04:25:25.603Z,0
2016-12-31T04:26:36.332Z,0
2016-12-31T04:27:47.079Z,0
2016-12-31T04:28:58.197Z,0
2016-12-31T04:30:08.934Z,0
2016-12-31T04:31:19.646Z,0
2016-12-31T04:32:30.337Z,0
2016-12-31T04:33:41.053Z,0
2016-12-31T04:34:51.776Z,0
2016-12-31T04:36:02.488Z,0
2016-12-31T04:37:13.219Z,0
2016-12-31T04:38:23.961Z,0
2016-12-31T04:39:34.703Z,0
2016-12-31T04:40:45.432Z,0
2016-12-31T04:41:56.202Z,0
2016-12-31T04:43:06.929Z,0
2016-12-31T04:44:17.645Z,0
2016-12-31T04:45:28.386Z,0
2016-12-31T04:46:39.100Z,0
2016-12-31T04:47:49.810Z,0
2016-12-31T04:49:00.516Z,0
2016-12-31T04:50:11.227Z,0
2016-12-31T04:51:21.941Z,0
2016-12-31T04:52:32.637Z,0
2016-12-31T04:53:43.368Z,0
2016-12-31T04:54:54.129Z,0
2016-12-31T04:56:04.855Z,0
2016-12-31T04:57:15.575Z,0
2016-12-31T04:58:26.321Z,0
2016-12-31T04:59:37.063Z,0
2016-12-31T05:00:47.783Z,0
2016-12-31T05:01:58.483Z,0
2016-12-31T05:03:09.205Z,0
2016-12-31T05:04:19.946Z,0
2016-12-31T05:05:30.671Z,0
2016-12-31T05:06:41.392Z,0
2016-12-31T05:07:52.118Z,0
2016-12-31T05:09:02.835Z,0
2016-12-31T05:10:13.577Z,0
2016-12-31T05:11:24.273Z,0
2016-12-31T05:12:34.972Z,0
2016-12-31T05:13:45.696Z,0
2016-12-31T05:14:56.414Z,0
2016-12-31T05:16:07.132Z,0
2016-12-31T05:17:17.830Z,0
2016-12-31T05:18:28.557Z,0
2016-12-31T05:19:39.288Z,0
2016-12-31T05:20:50.019Z,0
2016-12-31T05:22:00.765Z,0
2016-12-31T05:23:11.484Z,0
2016-12-31T05:24:22.181Z,0
2016-12-31T05:25:32.894Z,0
2016-12-31T05:26:43.595Z,0
2016-12-31T05:27:54.321Z,0
2016-12-31T05:29:05.040Z,0
2016-12-31T05:30:15.776Z,0
2016-12-31T05:31:26.513Z,0
2016-12-31T05:32:37.231Z,0
2016-12-31T05:33:47.949Z,0
2016-12-31T05:34:58.672Z,0
2016-12-31T05:36:09.394Z,0
2016-12-31T05:37:20.138Z,0
2016-12-31T05:38:30.857Z,0
2016-12-31T05:39:41.554Z,0
2016-12-31T05:40:52.276Z,0
2016-12-31T05:42:02.988Z,0
2016-12-31T05:43:13.695Z,0
2016-12-31T05:44:24.436Z,0
2016-12-31T05:45:35.155Z,0
2016-12-31T05:46:45.868Z,0
2016-12-31T05:47:56.596Z,0
2016-12-31T05:49:07.316Z,0
2016-12-31T05:50:18.038Z,0
2016-12-31T05:51:28.738Z,0
2016-12-31T05:52:39.447Z,0
2016-12-31T05:53:50.179Z,0
2016-12-31T05:55:00.896Z,0
2016-12-31T05:56:11.646Z,0
2016-12-31T05:57:22.362Z,0
2016-12-31T05:58:33.064Z,0
2016-12-31T05:59:43.783Z,0
2016-12-31T06:00:54.500Z,0
2016-12-31T06:02:05.221Z,0
2016-12-31T06:03:15.971Z,0
2016-12-31T06:04:26.708Z,0
2016-12-31T06:05:37.429Z,0
2016-12-31T06:06:48.172Z,0
2016-12-31T06:07:58.879Z,0
2016-12-31T06:09:09.645Z,0
2016-12-31T06:10:20.366Z,0
2016-12-31T06:11:31.090Z,0
2016-12-31T06:12:41.787Z,0
2016-12-31T06:13:52.504Z,0
2016-12-31T06:15:03.220Z,0
2016-12-31T06:16:13.921Z,0
2016-12-31T06:17:24.618Z,0
2016-12-31T06:18:35.347Z,0
2016-12-31T06:19:46.087Z,0
2016-12-31T06:20:56.809Z,0
2016-12-31T06:22:07.554Z,0
2016-12-31T06:23:18.254Z,0
2016-12-31T06:24:28.972Z,0
2016-12-31T06:25:39.692Z,0
2016-12-31T06:26:50.411Z,0
2016-12-31T06:28:01.102Z,0
2016-12-31T06:29:11.827Z,0
2016-12-31T06:30:22.549Z,0
2016-12-31T06:31:33.273Z,0
2016-12-31T06:32:43.995Z,0
2016-12-31T06:33:54.713Z,0
2016-12-31T06:35:05.440Z,0
2016-12-31T06:36:16.154Z,4
2016-12-31T06:37:26.874Z,0
2016-12-31T06:38:37.571Z,0
2016-12-31T06:39:48.270Z,4
2016-12-31T06:40:58.990Z,0
2016-12-31T06:42:09.716Z,4
2016-12-31T06:43:20.436Z,4
2016-12-31T06:44:31.155Z,4
2016-12-31T06:45:41.898Z,4
2016-12-31T06:46:52.616Z,8
2016-12-31T06:48:03.365Z,12
2016-12-31T06:49:14.087Z,12
2016-12-31T06:50:24.784Z,12
2016-12-31T06:51:35.526Z,16
2016-12-31T06:52:46.221Z,24
2016-12-31T06:53:56.917Z,24
2016-12-31T06:55:07.630Z,32
2016-12-31T06:56:18.336Z,40
2016-12-31T06:57:29.060Z,44
2016-12-31T06:58:39.802Z,52
2016-12-31T06:59:50.527Z,60
2016-12-31T07:01:01.269Z,68
2016-12-31T07:02:12.369Z,80
2016-12-31T07:03:23.107Z,92
2016-12-31T07:04:33.811Z,108
2016-12-31T07:05:44.533Z,120
2016-12-31T07:06:55.252Z,136
2016-12-31T07:08:05.974Z,152
2016-12-31T07:09:16.691Z,168
2016-12-31T07:10:27.412Z,188
2016-12-31T07:11:38.111Z,208
2016-12-31T07:12:48.837Z,228
2016-12-31T07:13:59.555Z,256
2016-12-31T07:15:10.300Z,280
2016-12-31T07:16:21.042Z,308
2016-12-31T07:17:31.759Z,332
2016-12-31T07:18:42.487Z,360
2016-12-31T07:19:53.207Z,392
2016-12-31T07:21:04.304Z,424
2016-12-31T07:22:15.050Z,456
2016-12-31T07:23:25.762Z,484
2016-12-31T07:24:36.490Z,520
2016-12-31T07:25:47.190Z,552
2016-12-31T07:26:57.916Z,588
2016-12-31T07:28:08.633Z,624
2016-12-31T07:29:19.350Z,660
2016-12-31T07:30:30.071Z,700
2016-12-31T07:31:40.773Z,732
2016-12-31T07:32:51.531Z,772
2016-12-31T07:34:02.240Z,808
2016-12-31T07:35:12.981Z,844
2016-12-31T07:36:23.698Z,880
2016-12-31T07:37:34.401Z,920
2016-12-31T07:38:45.144Z,956
2016-12-31T07:39:55.850Z,992
2016-12-31T07:41:06.583Z,1032
2016-12-31T07:42:17.309Z,1068
2016-12-31T07:43:28.047Z,1104
2016-12-31T07:44:38.775Z,1140
2016-12-31T07:45:49.476Z,1176
2016-12-31T07:47:00.222Z,1212
2016-12-31T07:48:10.964Z,1244
2016-12-31T07:49:21.711Z,1280
2016-12-31T07:50:32.406Z,1316
2016-12-31T07:51:43.109Z,1348
2016-12-31T07:52:53.834Z,1380
2016-12-31T07:54:04.575Z,1416
2016-12-31T07:55:15.309Z,1452
2016-12-31T07:56:26.012Z,1480
2016-12-31T07:57:36.737Z,1516
2016-12-31T07:58:47.458Z,1544
2016-12-31T07:59:58.184Z,1572
2016-12-31T08:01:08.903Z,1608
2016-12-31T08:02:19.645Z,1640
2016-12-31T08:03:30.340Z,1676
2016-12-31T08:04:41.063Z,1704
2016-12-31T08:05:51.786Z,1732
2016-12-31T08:07:02.506Z,1760
2016-12-31T08:08:13.252Z,1788
2016-12-31T08:09:23.948Z,1816
2016-12-31T08:10:34.670Z,1840
2016-12-31T08:11:45.388Z,1868
2016-12-31T08:12:56.088Z,1896
2016-12-31T08:14:06.805Z,1924
2016-12-31T08:15:17.551Z,1948
2016-12-31T08:16:28.289Z,1972
2016-12-31T08:17:38.994Z,2000
2016-12-31T08:18:49.723Z,2016
2016-12-31T08:20:00.440Z,2044
2016-12-31T08:21:11.174Z,2072
2016-12-31T08:22:21.878Z,2092
2016-12-31T08:23:32.603Z,2116
2016-12-31T08:24:43.320Z,2140
2016-12-31T08:25:54.070Z,2164
2016-12-31T08:27:04.793Z,2180
2016-12-31T08:28:15.513Z,2204
2016-12-31T08:29:26.230Z,2228
2016-12-31T08:30:36.955Z,2248
2016-12-31T08:31:47.701Z,2268
2016-12-31T08:32:58.439Z,2288
2016-12-31T08:34:09.168Z,2308
2016-12-31T08:35:19.881Z,2328
2016-12-31T08:36:30.607Z,2352
2016-12-31T08:37:41.307Z,2376
2016-12-31T08:38:52.024Z,2396
2016-12-31T08:40:02.725Z,2408
2016-12-31T08:41:13.444Z,2432
2016-12-31T08:42:24.141Z,2448
2016-12-31T08:43:34.858Z,2464
2016-12-31T08:44:45.560Z,2480
2016-12-31T08:45:56.275Z,2496
2016-12-31T08:47:06.976Z,2512
2016-12-31T08:48:17.692Z,2532
2016-12-31T08:49:28.442Z,2536
2016-12-31T08:50:39.162Z,2556
2016-12-31T08:51:49.859Z,2576
2016-12-31T08:53:00.574Z,2588
2016-12-31T08:54:11.291Z,2596
2016-12-31T08:55:22.023Z,2612
2016-12-31T08:56:32.761Z,2636
2016-12-31T08:57:43.486Z,2644
2016-12-31T08:58:54.232Z,2652
2016-12-31T09:00:04.946Z,2676
2016-12-31T09:01:15.692Z,2696
2016-12-31T09:02:26.399Z,2708
2016-12-31T09:03:37.116Z,2724
2016-12-31T09:04:47.847Z,2736
2016-12-31T09:05:58.561Z,2740
2016-12-31T09:07:09.284Z,2756
2016-12-31T09:08:20.022Z,2768
2016-12-31T09:09:30.722Z,2780
2016-12-31T09:10:41.422Z,2792
2016-12-31T09:11:52.143Z,2808
2016-12-31T09:13:02.885Z,2820
2016-12-31T09:14:13.584Z,2824
2016-12-31T09:15:24.311Z,2828
2016-12-31T09:16:35.049Z,2840
2016-12-31T09:17:45.770Z,2848
2016-12-31T09:18:56.471Z,2868
2016-12-31T09:20:07.207Z,2876
2016-12-31T09:21:17.912Z,2884
2016-12-31T09:22:28.633Z,2900
2016-12-31T09:23:39.355Z,2912
2016-12-31T09:24:50.051Z,2916
2016-12-31T09:26:00.796Z,2928
2016-12-31T09:27:11.513Z,2932
2016-12-31T09:28:22.237Z,2940
2016-12-31T09:29:32.976Z,2952
2016-12-31T09:30:43.676Z,2964
2016-12-31T09:31:54.381Z,2972
2016-12-31T09:33:05.095Z,2980
2016-12-31T09:34:15.793Z,2992
2016-12-31T09:35:26.517Z,2996
2016-12-31T09:36:37.240Z,3004
2016-12-31T09:37:47.977Z,3012
2016-12-31T09:38:58.731Z,3008
2016-12-31T09:40:09.469Z,3020
2016-12-31T09:41:20.193Z,3028
2016-12-31T09:42:30.914Z,3036
2016-12-31T09:43:41.653Z,3044
2016-12-31T09:44:52.383Z,3052
2016-12-31T09:46:03.119Z,3056
2016-12-31T09:47:13.874Z,3064
2016-12-31T09:48:24.593Z,3060
2016-12-31T09:49:35.315Z,3076
2016-12-31T09:50:46.032Z,3084
2016-12-31T09:51:56.755Z,3088
2016-12-31T09:53:07.475Z,3096
2016-12-31T09:54:18.195Z,3108
2016-12-31T09:55:28.919Z,3112
2016-12-31T09:56:39.658Z,3116
2016-12-31T09:57:50.361Z,3120
2016-12-31T09:59:01.053Z,3124
2016-12-31T10:00:11.761Z,3128
2016-12-31T10:01:22.478Z,3136
2016-12-31T10:02:33.195Z,3136
2016-12-31T10:03:43.913Z,3136
2016-12-31T10:04:54.632Z,3148
2016-12-31T10:06:05.379Z,3156
2016-12-31T10:07:16.103Z,3156
2016-12-31T10:08:26.849Z,3160
2016-12-31T10:09:37.575Z,3164
2016-12-31T10:10:48.291Z,3168
2016-12-31T10:11:59.008Z,3172
2016-12-31T10:13:09.729Z,3176
2016-12-31T10:14:20.454Z,3180
2016-12-31T10:15:31.195Z,3192
2016-12-31T10:16:41.919Z,3196
2016-12-31T10:17:52.654Z,3192
2016-12-31T10:19:03.384Z,3192
2016-12-31T10:20:14.108Z,3192
2016-12-31T10:21:24.829Z,3204
2016-12-31T10:22:35.576Z,3204
2016-12-31T10:23:46.292Z,3200
2016-12-31T10:24:56.997Z,3212
2016-12-31T10:26:07.729Z,3216
2016-12-31T10:27:18.458Z,3220
2016-12-31T10:28:29.201Z,3224
2016-12-31T10:29:39.926Z,3224
2016-12-31T10:30:50.626Z,3232
2016-12-31T10:32:01.347Z,3236
2016-12-31T10:33:12.440Z,3232
2016-12-31T10:34:23.162Z,3240
2016-12-31T10:35:33.879Z,3244
2016-12-31T10:36:44.623Z,3248
2016-12-31T10:37:55.348Z,3256
2016-12-31T10:39:06.050Z,3252
2016-12-31T10:40:16.781Z,3252
2016-12-31T10:41:27.511Z,3256
2016-12-31T10:42:38.257Z,3268
2016-12-31T10:43:48.999Z,3264
2016-12-31T10:44:59.697Z,3260
2016-12-31T10:46:10.421Z,3268
2016-12-31T10:47:21.166Z,3272
2016-12-31T10:48:31.879Z,3280
2016-12-31T10:49:42.632Z,3280
2016-12-31T10:50:53.353Z,3276
2016-12-31T10:52:04.099Z,3280
2016-12-31T10:53:14.817Z,3288
2016-12-31T10:54:25.542Z,3292
2016-12-31T10:55:36.259Z,3296
2016-12-31T10:56:46.960Z,3292
2016-12-31T10:57:57.655Z,3300
2016-12-31T10:59:08.351Z,3300
2016-12-31T11:00:19.085Z,3300
2016-12-31T11:01:29.821Z,3292
2016-12-31T11:02:40.534Z,3304
2016-12-31T11:03:51.255Z,3308
2016-12-31T11:05:01.980Z,3304
2016-12-31T11:06:12.715Z,3300
2016-12-31T11:07:23.471Z,3308
2016-12-31T11:08:34.189Z,3308
2016-12-31T11:09:44.914Z,3308
2016-12-31T11:10:55.685Z,3300
2016-12-31T11:12:06.433Z,3316
2016-12-31T11:13:17.147Z,3308
2016-12-31T11:14:27.886Z,3300
2016-12-31T11:15:38.614Z,3304
2016-12-31T11:16:49.353Z,3296
2016-12-31T11:18:00.086Z,3300
2016-12-31T11:19:10.828Z,3300
2016-12-31T11:20:21.556Z,3288
2016-12-31T11:21:32.298Z,3304
2016-12-31T11:22:43.036Z,3296
2016-12-31T11:23:53.739Z,3284
2016-12-31T11:25:04.485Z,3292
2016-12-31T11:26:15.178Z,3292
2016-12-31T11:27:25.903Z,3280
2016-12-31T11:28:36.663Z,3284
2016-12-31T11:29:47.391Z,3292
2016-12-31T11:30:58.117Z,3284
2016-12-31T11:32:08.834Z,3288
2016-12-31T11:33:19.554Z,3284
2016-12-31T11:34:30.280Z,3264
2016-12-31T11:35:41.042Z,3268
2016-12-31T11:36:51.767Z,3264
2016-12-31T11:38:02.491Z,3272
2016-12-31T11:39:13.213Z,3268
2016-12-31T11:40:23.983Z,3244
2016-12-31T11:41:34.722Z,3260
2016-12-31T11:42:45.427Z,3252
2016-12-31T11:43:56.161Z,3244
2016-12-31T11:45:07.281Z,3252
2016-12-31T11:46:18.013Z,3252
2016-12-31T11:47:28.733Z,3244
2016-12-31T11:48:39.452Z,3240
2016-12-31T11:49:50.175Z,3240
2016-12-31T11:51:00.924Z,3236
2016-12-31T11:52:11.644Z,3236
2016-12-31T11:53:22.388Z,3228
2016-12-31T11:54:33.149Z,3220
2016-12-31T11:55:43.880Z,3220
2016-12-31T11:56:54.627Z,3212
2016-12-31T11:58:05.350Z,3208
2016-12-31T11:59:16.084Z,3216
2016-12-31T12:00:26.814Z,3208
2016-12-31T12:01:37.539Z,3216
2016-12-31T12:02:48.257Z,3196
2016-12-31T12:03:58.992Z,3204
2016-12-31T12:05:09.724Z,3200
2016-12-31T12:06:20.445Z,3196
2016-12-31T12:07:31.212Z,3196
2016-12-31T12:08:41.932Z,3188
2016-12-31T12:09:52.654Z,3180
2016-12-31T12:11:03.353Z,3168
2016-12-31T12:12:14.071Z,3164
2016-12-31T12:13:24.795Z,3156
2016-12-31T12:14:35.517Z,3152
2016-12-31T12:15:46.288Z,3148
2016-12-31T12:16:57.004Z,3144
2016-12-31T12:18:07.729Z,3132
2016-12-31T12:19:18.452Z,3132
2016-12-31T12:20:29.174Z,3136
2016-12-31T12:21:39.895Z,3124
2016-12-31T12:22:50.634Z,3120
2016-12-31T12:24:01.348Z,3116
2016-12-31T12:25:12.056Z,3108
2016-12-31T12:26:22.772Z,3108
2016-12-31T12:27:33.489Z,3100
2016-12-31T12:28:44.218Z,3092
2016-12-31T12:29:54.936Z,3084
2016-12-31T12:31:05.635Z,3084
2016-12-31T12:32:16.381Z,3080
2016-12-31T12:33:27.119Z,3076
2016-12-31T12:34:37.846Z,3068
2016-12-31T12:35:48.569Z,3068
2016-12-31T12:36:59.307Z,3056
2016-12-31T12:38:10.433Z,3048
2016-12-31T12:39:21.134Z,3048
2016-12-31T12:40:31.877Z,3036
2016-12-31T12:41:42.620Z,3036
2016-12-31T12:42:53.344Z,3032
2016-12-31T12:44:04.062Z,3012
2016-12-31T12:45:14.789Z,3004
2016-12-31T12:46:25.512Z,3000
2016-12-31T12:47:36.256Z,2996
2016-12-31T12:48:46.974Z,2992
2016-12-31T12:49:57.670Z,2980
2016-12-31T12:51:08.418Z,2968
2016-12-31T12:52:19.176Z,2964
2016-12-31T12:53:29.883Z,2956
2016-12-31T12:54:40.647Z,2960
2016-12-31T12:55:51.353Z,2948
2016-12-31T12:57:02.110Z,2944
2016-12-31T12:58:12.822Z,2932
2016-12-31T12:59:23.566Z,2928
2016-12-31T13:00:34.309Z,2924
2016-12-31T13:01:45.044Z,2924
2016-12-31T13:02:55.751Z,2908
2016-12-31T13:04:06.473Z,2900
2016-12-31T13:05:17.190Z,2888
2016-12-31T13:06:27.889Z,2876
2016-12-31T13:07:38.623Z,2860
2016-12-31T13:08:49.356Z,2856
2016-12-31T13:10:00.073Z,2840
2016-12-31T13:11:10.790Z,2828
2016-12-31T13:12:21.519Z,2812
2016-12-31T13:13:32.268Z,2800
2016-12-31T13:14:42.986Z,2792
2016-12-31T13:15:53.728Z,2784
2016-12-31T13:17:04.482Z,2780
2016-12-31T13:18:15.214Z,2764
2016-12-31T13:19:25.916Z,2756
2016-12-31T13:20:36.641Z,2744
2016-12-31T13:21:47.386Z,2728
2016-12-31T13:22:58.128Z,2720
2016-12-31T13:24:08.870Z,2704
2016-12-31T13:25:19.612Z,2692
2016-12-31T13:26:30.341Z,2680
2016-12-31T13:27:41.044Z,2672
2016-12-31T13:28:51.779Z,2648
2016-12-31T13:30:02.508Z,2636
2016-12-31T13:31:13.245Z,2620
2016-12-31T13:32:23.974Z,2604
2016-12-31T13:33:34.720Z,2580
2016-12-31T13:34:45.415Z,2564
2016-12-31T13:35:56.133Z,2556
2016-12-31T13:37:06.858Z,2532
2016-12-31T13:38:17.578Z,2512
2016-12-31T13:39:28.303Z,2500
2016-12-31T13:40:39.026Z,2476
2016-12-31T13:41:49.769Z,2460
2016-12-31T13:43:00.540Z,2440
2016-12-31T13:44:11.255Z,2420
2016-12-31T13:45:21.995Z,2400
2016-12-31T13:46:32.722Z,2380
2016-12-31T13:47:43.473Z,2360
2016-12-31T13:48:54.197Z,2336
2016-12-31T13:50:04.915Z,2312
2016-12-31T13:51:15.661Z,2292
2016-12-31T13:52:26.383Z,2272
2016-12-31T13:53:37.123Z,2252
2016-12-31T13:54:47.848Z,2228
2016-12-31T13:55:58.595Z,2212
2016-12-31T13:57:09.316Z,2184
2016-12-31T13:58:20.033Z,2160
2016-12-31T13:59:30.733Z,2132
2016-12-31T14:00:41.475Z,2112
2016-12-31T14:01:52.198Z,2088
2016-12-31T14:03:03.300Z,2056
2016-12-31T14:04:14.043Z,2028
2016-12-31T14:05:24.787Z,2008
2016-12-31T14:06:35.533Z,1980
2016-12-31T14:07:46.280Z,1952
2016-12-31T14:08:57.025Z,1924
2016-12-31T14:10:07.769Z,1896
2016-12-31T14:11:18.481Z,1868
2016-12-31T14:12:29.215Z,1836
2016-12-31T14:13:39.935Z,1808
2016-12-31T14:14:50.702Z,1776
2016-12-31T14:16:01.398Z,1744
2016-12-31T14:17:12.098Z,1712
2016-12-31T14:18:22.833Z,1680
2016-12-31T14:19:33.578Z,1648
2016-12-31T14:20:44.288Z,1616
2016-12-31T14:21:55.005Z,1584
2016-12-31T14:23:05.727Z,1552
2016-12-31T14:24:16.423Z,1512
2016-12-31T14:25:27.169Z,1476
2016-12-31T14:26:37.913Z,1444
2016-12-31T14:27:48.624Z,1408
2016-12-31T14:28:59.334Z,1372
2016-12-31T14:30:10.076Z,1332
2016-12-31T14:31:20.800Z,1292
2016-12-31T14:32:31.538Z,1252
2016-12-31T14:33:42.255Z,1216
2016-12-31T14:34:53.001Z,1180
2016-12-31T14:36:03.710Z,1140
2016-12-31T14:37:14.478Z,1100
2016-12-31T14:38:25.200Z,1064
2016-12-31T14:39:35.921Z,1024
2016-12-31T14:40:46.638Z,988
2016-12-31T14:41:57.434Z,948
2016-12-31T14:43:08.180Z,908
2016-12-31T14:44:18.894Z,868
2016-12-31T14:45:29.602Z,832
2016-12-31T14:46:40.322Z,792
2016-12-31T14:47:51.038Z,752
2016-12-31T14:49:01.764Z,716
2016-12-31T14:50:12.508Z,680
2016-12-31T14:51:23.231Z,640
2016-12-31T14:52:33.951Z,604
2016-12-31T14:53:44.670Z,568
2016-12-31T14:54:55.416Z,536
2016-12-31T14:56:06.139Z,496
2016-12-31T14:57:16.884Z,464
2016-12-31T14:58:27.601Z,432
2016-12-31T14:59:38.727Z,400
2016-12-31T15:00:49.498Z,368
2016-12-31T15:02:00.239Z,344
2016-12-31T15:03:10.934Z,312
2016-12-31T15:04:21.656Z,288
2016-12-31T15:05:32.376Z,260
2016-12-31T15:06:43.098Z,240
2016-12-31T15:07:54.196Z,212
2016-12-31T15:09:04.939Z,196
2016-12-31T15:10:15.635Z,172
2016-12-31T15:11:26.357Z,156
2016-12-31T15:12:37.073Z,136
2016-12-31T15:13:47.801Z,120
2016-12-31T15:14:58.547Z,108
2016-12-31T15:16:09.292Z,96
2016-12-31T15:17:20.039Z,84
2016-12-31T15:18:30.781Z,72
2016-12-31T15:19:41.502Z,60
2016-12-31T15:20:52.251Z,52
2016-12-31T15:22:02.977Z,44
2016-12-31T15:23:13.694Z,36
2016-12-31T15:24:24.438Z,32
2016-12-31T15:25:35.162Z,28
2016-12-31T15:26:45.895Z,24
2016-12-31T15:27:56.627Z,16
2016-12-31T15:29:07.344Z,16
2016-12-31T15:30:18.072Z,12
2016-12-31T15:31:28.790Z,12
2016-12-31T15:32:39.511Z,12
2016-12-31T15:33:50.257Z,8
2016-12-31T15:35:00.999Z,8
2016-12-31T15:36:11.731Z,4
2016-12-31T15:37:22.469Z,4
2016-12-31T15:38:33.215Z,4
2016-12-31T15:39:44.349Z,4
2016-12-31T15:40:55.092Z,4
2016-12-31T15:42:05.828Z,0
2016-12-31T15:43:16.570Z,4
2016-12-31T15:44:27.308Z,4
2016-12-31T15:45:38.041Z,0
2016-12-31T15:46:48.791Z,0
2016-12-31T15:47:59.510Z,0
2016-12-31T15:49:10.228Z,0
2016-12-31T15:50:20.974Z,0
2016-12-31T15:51:31.721Z,0
2016-12-31T15:52:42.841Z,0
2016-12-31T15:53:53.637Z,0
2016-12-31T15:55:04.379Z,0
2016-12-31T15:56:15.096Z,0
2016-12-31T15:57:25.831Z,0
2016-12-31T15:58:36.568Z,0
2016-12-31T15:59:47.290Z,0
2016-12-31T16:00:58.037Z,0
2016-12-31T16:02:08.797Z,0
2016-12-31T16:03:19.517Z,0
2016-12-31T16:04:30.248Z,0
2016-12-31T16:05:40.970Z,0
2016-12-31T16:06:51.717Z,0
2016-12-31T16:08:02.438Z,0
2016-12-31T16:09:13.157Z,0
2016-12-31T16:10:23.875Z,0
2016-12-31T16:11:34.598Z,0
2016-12-31T16:12:45.300Z,0
2016-12-31T16:13:56.042Z,0
2016-12-31T16:15:06.829Z,0
2016-12-31T16:16:17.582Z,0
2016-12-31T16:17:28.300Z,0
2016-12-31T16:18:39.026Z,0
2016-12-31T16:19:49.771Z,0
2016-12-31T16:21:00.517Z,0
2016-12-31T16:22:11.238Z,0
2016-12-31T16:23:21.983Z,0
2016-12-31T16:24:33.107Z,0
2016-12-31T16:25:43.826Z,0
2016-12-31T16:26:54.548Z,0
2016-12-31T16:28:05.291Z,0
2016-12-31T16:29:16.014Z,0
2016-12-31T16:30:26.755Z,0
2016-12-31T16:31:37.456Z,0
2016-12-31T16:32:48.174Z,0